sensor_id;sensor_type;location;lat;lon;timestamp;pressure;altitude;pressure_sealevel;temperature;humidity
73671;BME280;61968;48.178;11.566;2022-07-24T00:00:38;96130.06;;;23.63;37.10
73671;BME280;61968;48.178;11.566;2022-07-24T00:03:04;96124.56;;;23.68;36.87
73671;BME280;61968;48.178;11.566;2022-07-24T00:05:31;96135.94;;;23.65;36.79
73671;BME280;61968;48.178;11.566;2022-07-24T00:07:58;96134.53;;;23.68;36.70
73671;BME280;61968;48.178;11.566;2022-07-24T00:10:25;96138.97;;;23.64;37.18
73671;BME280;61968;48.178;11.566;2022-07-24T00:12:52;96132.44;;;23.42;37.66
73671;BME280;61968;48.178;11.566;2022-07-24T00:15:18;96135.22;;;23.37;37.50
73671;BME280;61968;48.178;11.566;2022-07-24T00:17:46;96136.63;;;23.48;37.22
73671;BME280;61968;48.178;11.566;2022-07-24T00:20:12;96137.81;;;23.42;37.71
73671;BME280;61968;48.178;11.566;2022-07-24T00:22:39;96134.84;;;23.30;37.71
73671;BME280;61968;48.178;11.566;2022-07-24T00:25:06;96135.72;;;23.39;37.57
73671;BME280;61968;48.178;11.566;2022-07-24T00:27:33;96131.44;;;23.38;37.56
73671;BME280;61968;48.178;11.566;2022-07-24T00:30:00;96131.66;;;23.28;37.62
73671;BME280;61968;48.178;11.566;2022-07-24T00:32:27;96130.66;;;23.24;37.73
73671;BME280;61968;48.178;11.566;2022-07-24T00:34:54;96127.97;;;23.24;37.44
73671;BME280;61968;48.178;11.566;2022-07-24T00:37:21;96113.16;;;23.35;37.38
73671;BME280;61968;48.178;11.566;2022-07-24T00:39:48;96122.94;;;23.45;37.28
73671;BME280;61968;48.178;11.566;2022-07-24T00:42:14;96126.31;;;23.50;37.06
73671;BME280;61968;48.178;11.566;2022-07-24T00:44:41;96129.50;;;23.52;37.06
73671;BME280;61968;48.178;11.566;2022-07-24T00:47:07;96134.41;;;23.50;36.89
73671;BME280;61968;48.178;11.566;2022-07-24T00:49:34;96126.00;;;23.52;36.95
73671;BME280;61968;48.178;11.566;2022-07-24T00:52:02;96130.50;;;23.56;37.18
73671;BME280;61968;48.178;11.566;2022-07-24T00:54:29;96126.38;;;23.59;37.19
73671;BME280;61968;48.178;11.566;2022-07-24T00:56:55;96123.19;;;23.57;37.11
73671;BME280;61968;48.178;11.566;2022-07-24T00:59:22;96122.41;;;23.56;37.33
73671;BME280;61968;48.178;11.566;2022-07-24T01:01:49;96124.78;;;23.58;36.73
73671;BME280;61968;48.178;11.566;2022-07-24T01:04:17;96130.97;;;23.58;36.83
73671;BME280;61968;48.178;11.566;2022-07-24T01:06:44;96138.00;;;23.60;36.67
73671;BME280;61968;48.178;11.566;2022-07-24T01:09:12;96131.59;;;23.55;36.50
73671;BME280;61968;48.178;11.566;2022-07-24T01:11:39;96128.88;;;23.55;36.71
73671;BME280;61968;48.178;11.566;2022-07-24T01:14:06;96125.56;;;23.58;37.03
73671;BME280;61968;48.178;11.566;2022-07-24T01:16:32;96131.41;;;23.52;36.71
73671;BME280;61968;48.178;11.566;2022-07-24T01:18:59;96134.00;;;23.43;37.31
73671;BME280;61968;48.178;11.566;2022-07-24T01:21:27;96128.00;;;23.46;36.87
73671;BME280;61968;48.178;11.566;2022-07-24T01:23:53;96130.91;;;23.50;37.10
73671;BME280;61968;48.178;11.566;2022-07-24T01:26:20;96130.84;;;23.41;37.40
73671;BME280;61968;48.178;11.566;2022-07-24T01:28:46;96133.94;;;23.34;37.40
73671;BME280;61968;48.178;11.566;2022-07-24T01:31:13;96130.66;;;23.24;37.70
73671;BME280;61968;48.178;11.566;2022-07-24T01:33:39;96130.66;;;23.24;37.51
73671;BME280;61968;48.178;11.566;2022-07-24T01:36:06;96130.25;;;23.30;37.21
73671;BME280;61968;48.178;11.566;2022-07-24T01:38:34;96125.28;;;23.24;37.42
73671;BME280;61968;48.178;11.566;2022-07-24T01:41:01;96121.78;;;23.23;37.18
73671;BME280;61968;48.178;11.566;2022-07-24T01:43:27;96120.34;;;23.26;37.51
73671;BME280;61968;48.178;11.566;2022-07-24T01:45:53;96121.38;;;23.30;37.70
73671;BME280;61968;48.178;11.566;2022-07-24T01:48:20;96123.06;;;23.26;37.64
73671;BME280;61968;48.178;11.566;2022-07-24T01:50:47;96115.88;;;23.21;37.37
73671;BME280;61968;48.178;11.566;2022-07-24T01:53:13;96126.88;;;23.25;37.15
73671;BME280;61968;48.178;11.566;2022-07-24T01:55:42;96114.56;;;23.19;37.32
73671;BME280;61968;48.178;11.566;2022-07-24T01:58:08;96122.66;;;23.19;37.38
73671;BME280;61968;48.178;11.566;2022-07-24T02:00:35;96122.06;;;23.22;37.30
73671;BME280;61968;48.178;11.566;2022-07-24T02:03:01;96110.38;;;23.26;37.61
73671;BME280;61968;48.178;11.566;2022-07-24T02:05:28;96117.28;;;23.32;37.18
73671;BME280;61968;48.178;11.566;2022-07-24T02:07:56;96123.03;;;23.40;37.01
73671;BME280;61968;48.178;11.566;2022-07-24T02:10:23;96113.81;;;23.41;37.18
73671;BME280;61968;48.178;11.566;2022-07-24T02:12:51;96117.63;;;23.40;37.51
73671;BME280;61968;48.178;11.566;2022-07-24T02:15:18;96107.16;;;23.38;37.12
73671;BME280;61968;48.178;11.566;2022-07-24T02:17:45;96103.34;;;23.39;37.42
73671;BME280;61968;48.178;11.566;2022-07-24T02:20:12;96120.06;;;23.41;37.56
73671;BME280;61968;48.178;11.566;2022-07-24T02:22:39;96112.06;;;23.36;37.30
73671;BME280;61968;48.178;11.566;2022-07-24T02:25:06;96106.16;;;23.34;37.51
73671;BME280;61968;48.178;11.566;2022-07-24T02:27:34;96105.69;;;23.32;37.93
73671;BME280;61968;48.178;11.566;2022-07-24T02:30:02;96101.25;;;23.36;37.48
73671;BME280;61968;48.178;11.566;2022-07-24T02:32:29;96101.78;;;23.38;37.39
73671;BME280;61968;48.178;11.566;2022-07-24T02:34:56;96107.63;;;23.40;37.61
73671;BME280;61968;48.178;11.566;2022-07-24T02:37:22;96108.47;;;23.27;37.84
73671;BME280;61968;48.178;11.566;2022-07-24T02:39:49;96096.09;;;23.12;38.24
73671;BME280;61968;48.178;11.566;2022-07-24T02:42:15;96099.16;;;23.19;37.95
73671;BME280;61968;48.178;11.566;2022-07-24T02:44:42;96095.59;;;23.24;37.98
73671;BME280;61968;48.178;11.566;2022-07-24T02:47:09;96105.88;;;23.22;37.85
73671;BME280;61968;48.178;11.566;2022-07-24T02:49:36;96109.88;;;23.24;37.93
73671;BME280;61968;48.178;11.566;2022-07-24T02:52:03;96111.69;;;23.29;37.86
73671;BME280;61968;48.178;11.566;2022-07-24T02:54:29;96109.47;;;23.31;37.45
73671;BME280;61968;48.178;11.566;2022-07-24T02:56:56;96109.09;;;23.24;37.83
73671;BME280;61968;48.178;11.566;2022-07-24T02:59:22;96107.47;;;23.23;37.94
73671;BME280;61968;48.178;11.566;2022-07-24T03:01:49;96108.97;;;23.15;38.30
73671;BME280;61968;48.178;11.566;2022-07-24T03:04:17;96105.91;;;23.08;38.18
73671;BME280;61968;48.178;11.566;2022-07-24T03:06:43;96110.69;;;22.97;37.93
73671;BME280;61968;48.178;11.566;2022-07-24T03:09:10;96110.59;;;22.88;38.47
73671;BME280;61968;48.178;11.566;2022-07-24T03:11:36;96112.31;;;22.84;38.44
73671;BME280;61968;48.178;11.566;2022-07-24T03:14:03;96111.59;;;22.79;38.34
73671;BME280;61968;48.178;11.566;2022-07-24T03:16:29;96112.59;;;22.83;38.17
73671;BME280;61968;48.178;11.566;2022-07-24T03:18:56;96111.09;;;22.77;38.40
73671;BME280;61968;48.178;11.566;2022-07-24T03:21:24;96112.19;;;22.76;38.53
73671;BME280;61968;48.178;11.566;2022-07-24T03:23:51;96108.00;;;22.83;38.40
73671;BME280;61968;48.178;11.566;2022-07-24T03:26:17;96111.09;;;22.90;38.37
73671;BME280;61968;48.178;11.566;2022-07-24T03:28:44;96108.09;;;22.92;38.35
73671;BME280;61968;48.178;11.566;2022-07-24T03:31:10;96106.41;;;22.96;38.07
73671;BME280;61968;48.178;11.566;2022-07-24T03:33:36;96104.00;;;22.95;38.14
73671;BME280;61968;48.178;11.566;2022-07-24T03:36:03;96108.81;;;22.84;38.13
73671;BME280;61968;48.178;11.566;2022-07-24T03:38:31;96113.78;;;22.77;38.32
73671;BME280;61968;48.178;11.566;2022-07-24T03:40:58;96107.19;;;22.83;38.18
73671;BME280;61968;48.178;11.566;2022-07-24T03:43:24;96107.31;;;22.78;38.56
73671;BME280;61968;48.178;11.566;2022-07-24T03:45:50;96114.50;;;22.82;38.61
73671;BME280;61968;48.178;11.566;2022-07-24T03:48:17;96102.41;;;22.80;38.61
73671;BME280;61968;48.178;11.566;2022-07-24T03:50:43;96108.81;;;22.84;38.36
73671;BME280;61968;48.178;11.566;2022-07-24T03:53:10;96110.09;;;22.86;38.22
73671;BME280;61968;48.178;11.566;2022-07-24T03:55:38;96115.50;;;22.73;38.50
73671;BME280;61968;48.178;11.566;2022-07-24T03:58:04;96109.13;;;22.69;38.47
73671;BME280;61968;48.178;11.566;2022-07-24T04:00:31;96116.28;;;22.73;38.54
73671;BME280;61968;48.178;11.566;2022-07-24T04:02:57;96131.06;;;22.76;38.27
73671;BME280;61968;48.178;11.566;2022-07-24T04:05:24;96131.31;;;22.60;38.35
73671;BME280;61968;48.178;11.566;2022-07-24T04:07:50;96131.09;;;22.43;39.07
73671;BME280;61968;48.178;11.566;2022-07-24T04:10:17;96131.00;;;22.48;39.51
73671;BME280;61968;48.178;11.566;2022-07-24T04:12:44;96129.03;;;22.54;39.18
73671;BME280;61968;48.178;11.566;2022-07-24T04:15:11;96141.91;;;22.57;39.36
73671;BME280;61968;48.178;11.566;2022-07-24T04:17:39;96136.22;;;22.58;39.27
73671;BME280;61968;48.178;11.566;2022-07-24T04:20:06;96141.41;;;22.55;39.05
73671;BME280;61968;48.178;11.566;2022-07-24T04:22:33;96141.03;;;22.61;38.87
73671;BME280;61968;48.178;11.566;2022-07-24T04:25:00;96144.75;;;22.65;39.05
73671;BME280;61968;48.178;11.566;2022-07-24T04:27:26;96145.94;;;22.73;38.84
73671;BME280;61968;48.178;11.566;2022-07-24T04:29:54;96145.03;;;22.64;39.02
73671;BME280;61968;48.178;11.566;2022-07-24T04:32:20;96145.34;;;22.62;39.31
73671;BME280;61968;48.178;11.566;2022-07-24T04:34:47;96155.59;;;22.60;39.15
73671;BME280;61968;48.178;11.566;2022-07-24T04:37:13;96143.31;;;22.54;39.56
73671;BME280;61968;48.178;11.566;2022-07-24T04:39:40;96152.63;;;22.29;39.82
73671;BME280;61968;48.178;11.566;2022-07-24T04:42:06;96145.94;;;22.27;40.13
73671;BME280;61968;48.178;11.566;2022-07-24T04:44:33;96154.56;;;21.91;41.04
73671;BME280;61968;48.178;11.566;2022-07-24T04:47:00;96153.25;;;22.07;40.92
73671;BME280;61968;48.178;11.566;2022-07-24T04:49:27;96145.81;;;22.18;40.50
73671;BME280;61968;48.178;11.566;2022-07-24T04:51:53;96150.75;;;22.30;40.09
73671;BME280;61968;48.178;11.566;2022-07-24T04:54:20;96153.31;;;22.35;40.27
73671;BME280;61968;48.178;11.566;2022-07-24T04:56:46;96151.53;;;22.44;40.47
73671;BME280;61968;48.178;11.566;2022-07-24T04:59:13;96156.94;;;22.44;40.20
73671;BME280;61968;48.178;11.566;2022-07-24T05:01:39;96155.16;;;22.53;39.90
73671;BME280;61968;48.178;11.566;2022-07-24T05:04:07;96159.38;;;22.59;39.71
73671;BME280;61968;48.178;11.566;2022-07-24T05:06:34;96162.38;;;22.58;39.87
73671;BME280;61968;48.178;11.566;2022-07-24T05:09:00;96155.06;;;22.58;40.00
73671;BME280;61968;48.178;11.566;2022-07-24T05:11:27;96165.47;;;22.65;39.91
73671;BME280;61968;48.178;11.566;2022-07-24T05:13:53;96166.50;;;22.69;39.85
73671;BME280;61968;48.178;11.566;2022-07-24T05:16:20;96164.59;;;22.70;39.62
73671;BME280;61968;48.178;11.566;2022-07-24T05:18:46;96169.69;;;22.71;39.89
73671;BME280;61968;48.178;11.566;2022-07-24T05:21:14;96170.72;;;22.75;39.96
73671;BME280;61968;48.178;11.566;2022-07-24T05:23:41;96170.00;;;22.70;40.19
73671;BME280;61968;48.178;11.566;2022-07-24T05:26:08;96172.34;;;22.57;40.36
73671;BME280;61968;48.178;11.566;2022-07-24T05:28:34;96166.91;;;22.62;39.82
73671;BME280;61968;48.178;11.566;2022-07-24T05:31:01;96169.41;;;22.73;39.64
73671;BME280;61968;48.178;11.566;2022-07-24T05:33:27;96170.00;;;22.70;39.57
73671;BME280;61968;48.178;11.566;2022-07-24T05:35:54;96169.53;;;22.49;40.19
73671;BME280;61968;48.178;11.566;2022-07-24T05:38:22;96171.50;;;22.43;40.33
73671;BME280;61968;48.178;11.566;2022-07-24T05:40:48;96172.09;;;22.40;40.48
73671;BME280;61968;48.178;11.566;2022-07-24T05:43:15;96166.72;;;22.40;40.17
73671;BME280;61968;48.178;11.566;2022-07-24T05:45:43;96167.03;;;22.52;39.91
73671;BME280;61968;48.178;11.566;2022-07-24T05:48:09;96171.00;;;22.41;40.04
73671;BME280;61968;48.178;11.566;2022-07-24T05:50:36;96170.13;;;22.45;40.36
73671;BME280;61968;48.178;11.566;2022-07-24T05:53:02;96170.91;;;22.46;40.58
73671;BME280;61968;48.178;11.566;2022-07-24T05:55:30;96174.25;;;22.57;40.25
73671;BME280;61968;48.178;11.566;2022-07-24T05:57:56;96168.19;;;22.65;39.76
73671;BME280;61968;48.178;11.566;2022-07-24T06:00:23;96171.25;;;22.58;39.93
73671;BME280;61968;48.178;11.566;2022-07-24T06:02:49;96167.47;;;22.59;39.86
73671;BME280;61968;48.178;11.566;2022-07-24T06:05:16;96167.69;;;22.63;39.48
73671;BME280;61968;48.178;11.566;2022-07-24T06:07:43;96169.47;;;22.67;39.70
73671;BME280;61968;48.178;11.566;2022-07-24T06:10:10;96164.72;;;22.78;39.03
73671;BME280;61968;48.178;11.566;2022-07-24T06:12:38;96162.03;;;22.78;39.37
73671;BME280;61968;48.178;11.566;2022-07-24T06:15:06;96161.63;;;22.85;39.25
73671;BME280;61968;48.178;11.566;2022-07-24T06:17:32;96162.31;;;22.90;38.44
73671;BME280;61968;48.178;11.566;2022-07-24T06:19:59;96163.41;;;22.89;38.19
73671;BME280;61968;48.178;11.566;2022-07-24T06:22:25;96161.03;;;22.88;38.00
73671;BME280;61968;48.178;11.566;2022-07-24T06:24:52;96160.63;;;22.95;37.73
73671;BME280;61968;48.178;11.566;2022-07-24T06:27:20;96164.34;;;22.99;36.42
73671;BME280;61968;48.178;11.566;2022-07-24T06:29:48;96158.41;;;22.83;36.13
73671;BME280;61968;48.178;11.566;2022-07-24T06:32:14;96165.00;;;22.77;36.63
73671;BME280;61968;48.178;11.566;2022-07-24T06:34:41;96167.22;;;22.88;37.28
73671;BME280;61968;48.178;11.566;2022-07-24T06:37:07;96167.91;;;22.94;36.75
73671;BME280;61968;48.178;11.566;2022-07-24T06:39:33;96168.22;;;22.93;36.86
73671;BME280;61968;48.178;11.566;2022-07-24T06:42:00;96166.41;;;22.74;36.11
73671;BME280;61968;48.178;11.566;2022-07-24T06:44:26;96165.91;;;22.39;36.66
73671;BME280;61968;48.178;11.566;2022-07-24T06:46:54;96167.56;;;22.21;37.47
73671;BME280;61968;48.178;11.566;2022-07-24T06:49:21;96162.25;;;22.49;37.08
73671;BME280;61968;48.178;11.566;2022-07-24T06:51:48;96165.13;;;22.72;36.94
73671;BME280;61968;48.178;11.566;2022-07-24T06:54:14;96162.91;;;22.74;37.02
73671;BME280;61968;48.178;11.566;2022-07-24T06:56:41;96165.44;;;22.84;36.47
73671;BME280;61968;48.178;11.566;2022-07-24T06:59:07;96162.84;;;22.93;36.80
73671;BME280;61968;48.178;11.566;2022-07-24T07:01:34;96150.25;;;23.02;36.55
73671;BME280;61968;48.178;11.566;2022-07-24T07:04:02;96158.41;;;23.10;36.07
73671;BME280;61968;48.178;11.566;2022-07-24T07:06:28;96155.00;;;23.19;35.77
73671;BME280;61968;48.178;11.566;2022-07-24T07:08:54;96155.09;;;23.13;35.83
73671;BME280;61968;48.178;11.566;2022-07-24T07:11:21;96165.28;;;23.17;35.64
73671;BME280;61968;48.178;11.566;2022-07-24T07:13:47;96154.03;;;23.15;36.16
73671;BME280;61968;48.178;11.566;2022-07-24T07:16:14;96151.22;;;23.20;35.64
73671;BME280;61968;48.178;11.566;2022-07-24T07:18:40;96161.94;;;23.25;35.82
73671;BME280;61968;48.178;11.566;2022-07-24T07:21:08;96159.63;;;23.32;35.97
73671;BME280;61968;48.178;11.566;2022-07-24T07:23:35;96160.44;;;23.32;35.59
73671;BME280;61968;48.178;11.566;2022-07-24T07:26:02;96163.03;;;23.24;35.58
73671;BME280;61968;48.178;11.566;2022-07-24T07:28:28;96156.84;;;23.23;35.51
73671;BME280;61968;48.178;11.566;2022-07-24T07:30:55;96159.63;;;23.32;35.90
73671;BME280;61968;48.178;11.566;2022-07-24T07:33:21;96161.41;;;23.37;35.11
73671;BME280;61968;48.178;11.566;2022-07-24T07:35:48;96161.22;;;23.33;35.58
73671;BME280;61968;48.178;11.566;2022-07-24T07:38:16;96167.59;;;23.37;35.13
73671;BME280;61968;48.178;11.566;2022-07-24T07:40:43;96158.63;;;23.28;34.82
73671;BME280;61968;48.178;11.566;2022-07-24T07:43:09;96160.72;;;23.31;35.18
73671;BME280;61968;48.178;11.566;2022-07-24T07:45:35;96166.53;;;23.38;35.10
73671;BME280;61968;48.178;11.566;2022-07-24T07:48:02;96156.41;;;23.44;35.36
73671;BME280;61968;48.178;11.566;2022-07-24T07:50:29;96161.59;;;23.40;34.67
73671;BME280;61968;48.178;11.566;2022-07-24T07:52:56;96159.41;;;23.42;35.32
73671;BME280;61968;48.178;11.566;2022-07-24T07:55:23;96166.19;;;23.53;34.68
73671;BME280;61968;48.178;11.566;2022-07-24T07:57:50;96160.25;;;23.65;35.50
73671;BME280;61968;48.178;11.566;2022-07-24T08:00:17;96160.56;;;23.64;34.12
73671;BME280;61968;48.178;11.566;2022-07-24T08:02:44;96163.75;;;23.66;34.64
73671;BME280;61968;48.178;11.566;2022-07-24T08:05:11;96168.75;;;23.72;34.95
73671;BME280;61968;48.178;11.566;2022-07-24T08:07:38;96158.84;;;23.82;32.64
73671;BME280;61968;48.178;11.566;2022-07-24T08:10:06;96163.91;;;23.83;33.78
73671;BME280;61968;48.178;11.566;2022-07-24T08:12:34;96164.13;;;23.87;32.32
73671;BME280;61968;48.178;11.566;2022-07-24T08:15:01;96162.84;;;23.84;33.04
73671;BME280;61968;48.178;11.566;2022-07-24T08:17:27;96156.50;;;23.89;32.58
73671;BME280;61968;48.178;11.566;2022-07-24T08:19:54;96157.00;;;23.91;32.83
73671;BME280;61968;48.178;11.566;2022-07-24T08:22:20;96151.72;;;23.86;32.13
73671;BME280;61968;48.178;11.566;2022-07-24T08:24:47;96157.78;;;23.91;33.22
73671;BME280;61968;48.178;11.566;2022-07-24T08:27:13;96159.16;;;24.02;32.57
73671;BME280;61968;48.178;11.566;2022-07-24T08:29:41;96162.22;;;24.10;32.10
73671;BME280;61968;48.178;11.566;2022-07-24T08:32:07;96161.59;;;24.13;32.38
73671;BME280;61968;48.178;11.566;2022-07-24T08:34:34;96160.00;;;24.12;31.32
73671;BME280;61968;48.178;11.566;2022-07-24T08:37:00;96159.94;;;24.03;31.95
73671;BME280;61968;48.178;11.566;2022-07-24T08:39:27;96166.03;;;24.09;31.87
73671;BME280;61968;48.178;11.566;2022-07-24T08:41:54;96164.81;;;24.15;31.92
73671;BME280;61968;48.178;11.566;2022-07-24T08:44:20;96154.25;;;24.05;31.02
73671;BME280;61968;48.178;11.566;2022-07-24T08:46:49;96157.44;;;24.07;31.84
73671;BME280;61968;48.178;11.566;2022-07-24T08:49:16;96154.50;;;24.17;31.72
73671;BME280;61968;48.178;11.566;2022-07-24T08:51:43;96158.66;;;24.23;31.17
73671;BME280;61968;48.178;11.566;2022-07-24T08:54:11;96152.09;;;24.15;31.22
73671;BME280;61968;48.178;11.566;2022-07-24T08:56:38;96154.84;;;24.24;31.48
73671;BME280;61968;48.178;11.566;2022-07-24T08:59:15;96154.22;;;24.27;31.07
73671;BME280;61968;48.178;11.566;2022-07-24T09:01:41;96148.72;;;24.32;31.58
73671;BME280;61968;48.178;11.566;2022-07-24T09:04:34;96153.00;;;24.33;30.91
73671;BME280;61968;48.178;11.566;2022-07-24T09:07:03;96159.09;;;24.39;31.24
73671;BME280;61968;48.178;11.566;2022-07-24T09:09:30;96151.34;;;24.46;30.16
73671;BME280;61968;48.178;11.566;2022-07-24T09:12:06;96152.19;;;24.33;30.52
73671;BME280;61968;48.178;11.566;2022-07-24T09:14:33;96153.53;;;24.35;30.80
73671;BME280;61968;48.178;11.566;2022-07-24T09:17:04;96153.53;;;24.35;29.88
73671;BME280;61968;48.178;11.566;2022-07-24T09:19:31;96143.31;;;24.32;30.88
73671;BME280;61968;48.178;11.566;2022-07-24T09:21:59;96143.06;;;24.42;30.92
73671;BME280;61968;48.178;11.566;2022-07-24T09:24:25;96146.44;;;24.48;31.06
73671;BME280;61968;48.178;11.566;2022-07-24T09:26:53;96147.91;;;24.54;30.65
73671;BME280;61968;48.178;11.566;2022-07-24T09:29:23;96146.09;;;24.49;29.82
73671;BME280;61968;48.178;11.566;2022-07-24T09:31:51;96149.00;;;24.53;30.70
73671;BME280;61968;48.178;11.566;2022-07-24T09:34:17;96148.38;;;24.56;30.26
73671;BME280;61968;48.178;11.566;2022-07-24T09:36:55;96152.50;;;24.54;30.00
73671;BME280;61968;48.178;11.566;2022-07-24T09:39:24;96152.56;;;24.62;30.63
73671;BME280;61968;48.178;11.566;2022-07-24T09:41:52;96144.44;;;24.62;29.95
73671;BME280;61968;48.178;11.566;2022-07-24T09:44:18;96146.66;;;24.60;29.99
73671;BME280;61968;48.178;11.566;2022-07-24T09:46:46;96139.78;;;24.54;29.44
73671;BME280;61968;48.178;11.566;2022-07-24T09:49:18;96146.16;;;24.58;29.88
73671;BME280;61968;48.178;11.566;2022-07-24T09:51:45;96143.94;;;24.60;30.26
73671;BME280;61968;48.178;11.566;2022-07-24T09:54:29;96139.50;;;24.64;30.27
73671;BME280;61968;48.178;11.566;2022-07-24T09:57:14;96136.81;;;24.64;29.95
73671;BME280;61968;48.178;11.566;2022-07-24T09:59:45;96137.97;;;24.72;29.74
73671;BME280;61968;48.178;11.566;2022-07-24T10:02:13;96135.72;;;24.74;29.75
73671;BME280;61968;48.178;11.566;2022-07-24T10:04:42;96133.34;;;24.73;29.75
73671;BME280;61968;48.178;11.566;2022-07-24T10:07:10;96132.38;;;24.77;29.84
73671;BME280;61968;48.178;11.566;2022-07-24T10:09:41;96135.13;;;24.86;29.78
73671;BME280;61968;48.178;11.566;2022-07-24T10:12:11;96130.22;;;24.88;29.99
73671;BME280;61968;48.178;11.566;2022-07-24T10:14:39;96131.63;;;24.85;29.92
73671;BME280;61968;48.178;11.566;2022-07-24T10:17:08;96126.72;;;24.87;30.01
73671;BME280;61968;48.178;11.566;2022-07-24T10:19:40;96128.50;;;24.92;29.43
73671;BME280;61968;48.178;11.566;2022-07-24T10:22:10;96123.91;;;24.92;29.67
73671;BME280;61968;48.178;11.566;2022-07-24T10:24:58;96114.69;;;24.93;29.41
73671;BME280;61968;48.178;11.566;2022-07-24T10:27:29;96114.19;;;24.91;28.83
73671;BME280;61968;48.178;11.566;2022-07-24T10:29:58;96107.22;;;24.99;29.51
73671;BME280;61968;48.178;11.566;2022-07-24T10:32:25;96113.09;;;24.92;28.72
73671;BME280;61968;48.178;11.566;2022-07-24T10:35:00;96116.25;;;24.94;28.79
73671;BME280;61968;48.178;11.566;2022-07-24T10:37:32;96112.78;;;25.03;28.53
73671;BME280;61968;48.178;11.566;2022-07-24T10:40:11;96102.91;;;25.07;28.77
73671;BME280;61968;48.178;11.566;2022-07-24T10:43:13;96098.31;;;25.07;29.34
73671;BME280;61968;48.178;11.566;2022-07-24T10:45:41;96099.16;;;25.16;29.51
73671;BME280;61968;48.178;11.566;2022-07-24T10:48:25;96101.84;;;25.25;29.30
73671;BME280;61968;48.178;11.566;2022-07-24T10:51:07;96106.16;;;25.35;29.14
73671;BME280;61968;48.178;11.566;2022-07-24T10:53:50;96106.63;;;25.37;28.45
73671;BME280;61968;48.178;11.566;2022-07-24T10:56:23;96100.13;;;25.47;28.94
73671;BME280;61968;48.178;11.566;2022-07-24T10:58:55;96089.91;;;25.44;28.14
73671;BME280;61968;48.178;11.566;2022-07-24T11:01:31;96088.66;;;25.50;28.33
73671;BME280;61968;48.178;11.566;2022-07-24T11:03:58;96092.84;;;25.56;28.50
73671;BME280;61968;48.178;11.566;2022-07-24T11:06:42;96108.13;;;25.60;28.19
73671;BME280;61968;48.178;11.566;2022-07-24T11:09:09;96093.94;;;25.64;27.94
73671;BME280;61968;48.178;11.566;2022-07-24T11:11:41;96093.31;;;25.67;28.10
73671;BME280;61968;48.178;11.566;2022-07-24T11:14:10;96093.59;;;25.74;28.20
73671;BME280;61968;48.178;11.566;2022-07-24T11:16:36;96088.66;;;25.84;28.25
73671;BME280;61968;48.178;11.566;2022-07-24T11:19:29;96079.91;;;25.88;28.10
73671;BME280;61968;48.178;11.566;2022-07-24T11:22:10;96079.75;;;25.84;28.04
73671;BME280;61968;48.178;11.566;2022-07-24T11:25:04;96085.81;;;25.98;27.93
73671;BME280;61968;48.178;11.566;2022-07-24T11:27:43;96074.00;;;26.03;27.57
73671;BME280;61968;48.178;11.566;2022-07-24T11:30:10;96076.56;;;26.08;27.47
73671;BME280;61968;48.178;11.566;2022-07-24T11:32:38;96072.41;;;26.02;27.58
73671;BME280;61968;48.178;11.566;2022-07-24T11:35:06;96075.72;;;26.16;27.71
73671;BME280;61968;48.178;11.566;2022-07-24T11:37:34;96068.56;;;26.20;27.62
73671;BME280;61968;48.178;11.566;2022-07-24T11:40:02;96073.47;;;26.18;27.38
73671;BME280;61968;48.178;11.566;2022-07-24T11:42:30;96066.78;;;26.16;26.50
73671;BME280;61968;48.178;11.566;2022-07-24T11:44:58;96069.66;;;26.19;27.73
73671;BME280;61968;48.178;11.566;2022-07-24T11:47:27;96064.06;;;26.24;27.17
73671;BME280;61968;48.178;11.566;2022-07-24T11:49:55;96067.25;;;26.26;27.42
73671;BME280;61968;48.178;11.566;2022-07-24T11:52:24;96060.53;;;26.33;27.15
73671;BME280;61968;48.178;11.566;2022-07-24T11:54:53;96058.44;;;26.38;26.91
73671;BME280;61968;48.178;11.566;2022-07-24T11:57:22;96061.47;;;26.37;27.51
73671;BME280;61968;48.178;11.566;2022-07-24T11:59:49;96059.41;;;26.34;27.00
73671;BME280;61968;48.178;11.566;2022-07-24T12:02:19;96050.81;;;26.32;26.80
73671;BME280;61968;48.178;11.566;2022-07-24T12:04:46;96058.47;;;26.29;26.36
73671;BME280;61968;48.178;11.566;2022-07-24T12:07:15;96055.91;;;26.33;26.42
73671;BME280;61968;48.178;11.566;2022-07-24T12:09:44;96053.34;;;26.37;26.31
73671;BME280;61968;48.178;11.566;2022-07-24T12:12:24;96048.75;;;26.28;26.50
73671;BME280;61968;48.178;11.566;2022-07-24T12:14:54;96050.66;;;26.28;26.96
73671;BME280;61968;48.178;11.566;2022-07-24T12:17:27;96051.75;;;26.36;27.31
73671;BME280;61968;48.178;11.566;2022-07-24T12:19:55;96047.88;;;26.45;26.45
73671;BME280;61968;48.178;11.566;2022-07-24T12:22:23;96052.81;;;26.52;26.40
73671;BME280;61968;48.178;11.566;2022-07-24T12:24:50;96045.34;;;26.40;26.05
73671;BME280;61968;48.178;11.566;2022-07-24T12:27:39;96036.75;;;26.38;26.06
73671;BME280;61968;48.178;11.566;2022-07-24T12:30:22;96044.28;;;26.33;25.92
73671;BME280;61968;48.178;11.566;2022-07-24T12:32:55;96039.44;;;26.47;26.25
73671;BME280;61968;48.178;11.566;2022-07-24T12:35:22;96031.75;;;26.49;26.57
73671;BME280;61968;48.178;11.566;2022-07-24T12:37:49;96031.44;;;26.59;26.08
73671;BME280;61968;48.178;11.566;2022-07-24T12:40:23;96026.28;;;26.66;26.13
73671;BME280;61968;48.178;11.566;2022-07-24T12:42:56;96026.06;;;26.80;26.47
73671;BME280;61968;48.178;11.566;2022-07-24T12:45:22;96016.13;;;26.84;25.89
73671;BME280;61968;48.178;11.566;2022-07-24T12:48:08;96024.06;;;26.89;26.34
73671;BME280;61968;48.178;11.566;2022-07-24T12:50:34;96010.78;;;26.96;25.62
73671;BME280;61968;48.178;11.566;2022-07-24T12:53:02;96018.13;;;26.96;25.44
73671;BME280;61968;48.178;11.566;2022-07-24T12:55:29;96013.88;;;26.86;25.07